createdAt,value
2019-04-04T00:03:47.228Z,40.2
2019-04-04T00:08:52.503Z,40.1
2019-04-04T00:13:57.897Z,40.1
2019-04-04T00:19:03.009Z,40.2
2019-04-04T00:24:11.565Z,40.8
2019-04-04T00:29:19.692Z,41
2019-04-04T00:34:28.812Z,41
2019-04-04T00:39:34.364Z,41.4
2019-04-04T00:44:38.224Z,41.4
2019-04-04T00:49:43.268Z,41.6
2019-04-04T00:54:48.640Z,41.8
2019-04-04T00:59:56.172Z,41.9
2019-04-04T01:05:04.231Z,42
2019-04-04T01:10:09.471Z,42
2019-04-04T01:15:14.605Z,42
2019-04-04T01:20:22.676Z,42.3
2019-04-04T01:25:31.766Z,42.3
2019-04-04T01:30:36.954Z,42.5
2019-04-04T01:35:42.275Z,42.7
2019-04-04T01:40:47.271Z,43.3
2019-04-04T01:45:52.728Z,42.9
2019-04-04T01:50:56.869Z,43
2019-04-04T01:56:02.200Z,43
2019-04-04T02:01:07.312Z,43
2019-04-04T02:06:11.240Z,42.7
2019-04-04T02:11:16.224Z,42.8
2019-04-04T02:16:21.493Z,42.7
2019-04-04T02:21:29.361Z,42.6
2019-04-04T02:26:38.525Z,42.6
2019-04-04T02:31:43.897Z,42.6
2019-04-04T02:36:52.670Z,42.8
2019-04-04T02:41:57.849Z,42.8
2019-04-04T02:47:03.031Z,43
2019-04-04T02:52:08.053Z,43.1
2019-04-04T02:57:13.282Z,43.3
2019-04-04T03:02:18.838Z,43.4
2019-04-04T03:07:24.087Z,43.5
2019-04-04T03:12:29.382Z,43.5
2019-04-04T03:17:35.358Z,43.5
2019-04-04T03:22:40.433Z,43.5
2019-04-04T03:27:45.767Z,43.3
2019-04-04T03:32:57.591Z,43.1
2019-04-04T03:37:53.436Z,43.1
2019-04-04T03:42:58.483Z,43.3
2019-04-04T03:48:03.731Z,43.1
2019-04-04T03:53:07.588Z,43
2019-04-04T03:58:13.039Z,42.9
2019-04-04T04:03:16.855Z,43.1
2019-04-04T04:08:24.684Z,43.2
2019-04-04T04:13:30.053Z,43
2019-04-04T04:18:35.091Z,43
2019-04-04T04:23:38.763Z,43.1
2019-04-04T04:28:44.278Z,43.1
2019-04-04T04:33:47.960Z,43.1
2019-04-04T04:38:51.788Z,42.9
2019-04-04T04:43:56.979Z,42.9
2019-04-04T04:49:06.167Z,42.7
2019-04-04T04:54:11.216Z,42.7
2019-04-04T04:59:16.635Z,42.3
2019-04-04T05:04:21.809Z,42.3
2019-04-04T05:09:26.829Z,42.3
2019-04-04T05:14:32.425Z,42.2
2019-04-04T05:19:37.616Z,42.1
2019-04-04T05:24:42.955Z,42.1
2019-04-04T05:29:48.171Z,42.1
2019-04-04T05:34:53.224Z,42.1
2019-04-04T05:39:58.311Z,42.1
2019-04-04T05:45:03.287Z,42.1
2019-04-04T05:50:12.046Z,42.2
2019-04-04T05:55:15.888Z,42.2
2019-04-04T06:00:21.030Z,42.1
2019-04-04T06:05:32.572Z,42.1
2019-04-04T06:10:28.453Z,42.1
2019-04-04T06:15:35.330Z,42.2
2019-04-04T06:20:40.516Z,42.2
2019-04-04T06:25:45.756Z,42.1
2019-04-04T06:30:55.447Z,41.7
2019-04-04T06:36:01.088Z,41.4
2019-04-04T06:41:07.104Z,40.1
2019-04-04T06:46:12.431Z,40.1
2019-04-04T06:51:17.360Z,38.8
2019-04-04T06:56:20.830Z,38.6
2019-04-04T07:01:28.038Z,38
2019-04-04T07:06:33.276Z,38
2019-04-04T07:11:38.635Z,37.6
2019-04-04T07:16:43.940Z,38.6
2019-04-04T07:21:52.256Z,38
2019-04-04T07:26:57.335Z,38
2019-04-04T07:32:02.440Z,38
2019-04-04T07:37:07.570Z,38
2019-04-04T07:42:15.467Z,38.1
2019-04-04T07:47:20.921Z,37.8
2019-04-04T07:52:26.424Z,37.6
2019-04-04T07:57:32.840Z,34.1
2019-04-04T08:02:37.915Z,34.1
2019-04-04T08:07:43.248Z,32.8
2019-04-04T08:12:48.661Z,30.2
2019-04-04T08:17:53.853Z,29.8
2019-04-04T08:22:59.055Z,29.7
2019-04-04T08:28:04.275Z,32.6
2019-04-04T08:33:09.863Z,36.2
2019-04-04T08:38:15.153Z,36.2
2019-04-04T08:43:20.246Z,35.3
2019-04-04T08:48:25.133Z,34.8
2019-04-04T08:53:42.628Z,36.3
2019-04-04T08:58:38.160Z,37.2
2019-04-04T09:03:43.382Z,37.2
2019-04-04T09:08:48.384Z,37
2019-04-04T09:13:54.162Z,35.5
2019-04-04T09:18:59.124Z,35.6
2019-04-04T09:24:04.643Z,36.6
2019-04-04T09:29:09.886Z,36.5
2019-04-04T09:34:14.837Z,36.2
2019-04-04T09:39:20.043Z,34.9
2019-04-04T09:44:25.161Z,34.1
2019-04-04T09:49:30.208Z,32.3
2019-04-04T09:54:35.621Z,24.9
2019-04-04T09:59:40.654Z,24.9
2019-04-04T10:04:45.915Z,26.9
2019-04-04T10:09:51.591Z,23.8
2019-04-04T10:14:57.030Z,23.8
2019-04-04T10:20:02.003Z,22.5
2019-04-04T10:25:07.747Z,23.5
2019-04-04T10:30:12.768Z,22.6
2019-04-04T10:35:17.876Z,22.9
2019-04-04T10:40:23.065Z,23.2
2019-04-04T10:45:28.250Z,23.6
2019-04-04T10:50:33.685Z,21.1
2019-04-04T10:55:38.838Z,21.2
2019-04-04T11:00:42.650Z,21
2019-04-04T11:05:47.734Z,22.9
2019-04-04T11:10:53.276Z,22.4
2019-04-04T11:15:58.260Z,22.4
2019-04-04T11:21:03.800Z,23.8
2019-04-04T11:26:09.028Z,23.8
2019-04-04T11:31:14.522Z,24.8
2019-04-04T11:36:21.018Z,21.5
2019-04-04T11:41:26.493Z,21.5
2019-04-04T11:46:30.153Z,22.7
2019-04-04T11:51:35.368Z,22.8
2019-04-04T11:56:40.433Z,23
2019-04-04T12:01:45.457Z,22.2
2019-04-04T12:06:50.536Z,21.9
2019-04-04T12:11:55.639Z,22.7
2019-04-04T12:17:04.027Z,22.7
2019-04-04T12:22:11.632Z,23
2019-04-04T12:27:17.214Z,22.3
2019-04-04T12:32:22.805Z,23.3
2019-04-04T12:37:28.022Z,23.4
2019-04-04T12:42:33.436Z,24
2019-04-04T12:47:38.892Z,24.1
2019-04-04T12:52:45.365Z,26.6
2019-04-04T12:57:50.640Z,26.6
2019-04-04T13:02:55.821Z,26.9
2019-04-04T13:08:00.032Z,27.6
2019-04-04T13:13:04.861Z,27.3
2019-04-04T13:18:10.077Z,28.2
2019-04-04T13:23:15.264Z,28.8
2019-04-04T13:28:20.623Z,28.7
2019-04-04T13:33:26.157Z,28
2019-04-04T13:38:31.304Z,28.3
2019-04-04T13:43:36.709Z,28.1
2019-04-04T13:48:48.581Z,28.8
2019-04-04T13:53:52.094Z,28.8
2019-04-04T13:59:00.911Z,29.3
2019-04-04T14:04:00.642Z,29.6
2019-04-04T14:09:05.516Z,29.6
2019-04-04T14:14:11.957Z,29.7
2019-04-04T14:19:17.139Z,29.4
2019-04-04T14:24:20.721Z,29.6
2019-04-04T14:29:30.452Z,29.4
2019-04-04T14:34:34.120Z,29.4
2019-04-04T14:39:39.352Z,29.8
2019-04-04T14:44:43.024Z,29.6
2019-04-04T14:49:48.388Z,29.6
2019-04-04T14:54:53.598Z,29.8
2019-04-04T14:59:58.659Z,29.9
2019-04-04T15:05:02.493Z,30.6
2019-04-04T15:10:07.633Z,30.7
2019-04-04T15:15:12.562Z,31
2019-04-04T15:20:18.371Z,30.9
2019-04-04T15:25:21.913Z,30.7
2019-04-04T15:30:28.506Z,30.9
2019-04-04T15:35:33.727Z,30.8
2019-04-04T15:40:38.883Z,30.8
2019-04-04T15:45:43.920Z,30.8
2019-04-04T15:50:48.918Z,31.1
2019-04-04T15:55:53.968Z,31.6
2019-04-04T16:01:00.012Z,31.9
2019-04-04T16:06:05.490Z,32.2
2019-04-04T16:11:10.808Z,32.4
2019-04-04T16:16:16.021Z,32.5
2019-04-04T16:21:23.900Z,33
2019-04-04T16:26:35.328Z,33.2
2019-04-04T16:31:40.362Z,33.4
2019-04-04T16:36:36.601Z,33.6
2019-04-04T16:41:47.130Z,33.9
2019-04-04T16:47:01.217Z,34.2
2019-04-04T16:52:06.992Z,34.5
2019-04-04T16:57:03.905Z,34.9
2019-04-04T17:02:11.028Z,35.2
2019-04-04T17:07:13.340Z,35.5
2019-04-04T17:12:23.014Z,35.8
2019-04-04T17:17:34.522Z,36.3
2019-04-04T17:22:36.844Z,36.5
2019-04-04T17:27:40.304Z,36.9
2019-04-04T17:32:42.281Z,37.2
2019-04-04T17:37:50.345Z,37.7
2019-04-04T17:42:53.281Z,38.3
2019-04-04T17:47:54.586Z,38.9
2019-04-04T17:52:57.142Z,39.3
2019-04-04T17:58:08.452Z,39.7
2019-04-04T18:03:05.637Z,40.8
2019-04-04T18:08:11.461Z,40.2
2019-04-04T18:13:17.995Z,40.4
2019-04-04T18:18:23.959Z,40.5
2019-04-04T18:23:33.045Z,40.7
2019-04-04T18:28:42.663Z,40.9
2019-04-04T18:33:49.520Z,41
2019-04-04T18:39:00.297Z,41.2
2019-04-04T18:44:09.725Z,41.3
2019-04-04T18:49:13.267Z,41.2
2019-04-04T18:54:20.724Z,41.9
2019-04-04T18:59:32.512Z,41.5
2019-04-04T19:04:28.947Z,41.8
2019-04-04T19:09:34.905Z,42.9
2019-04-04T19:14:41.019Z,42.1
2019-04-04T19:19:48.319Z,42.9
2019-04-04T19:24:58.380Z,43.3
2019-04-04T19:30:03.678Z,43.2
2019-04-04T19:35:16.963Z,44
2019-04-04T19:40:19.965Z,44.2
2019-04-04T19:45:23.686Z,44.5
2019-04-04T19:50:20.242Z,44.7
2019-04-04T19:55:28.106Z,44.8
2019-04-04T20:00:35.246Z,44.6
2019-04-04T20:05:40.254Z,44.3
2019-04-04T20:10:44.637Z,43.9
2019-04-04T20:15:52.326Z,43.6
2019-04-04T20:20:58.369Z,43.4
2019-04-04T20:26:19.203Z,43.6
2019-04-04T20:31:19.202Z,44.5
2019-04-04T20:36:25.216Z,45.9
2019-04-04T20:41:31.607Z,46.9
2019-04-04T20:46:40.176Z,47.4
2019-04-04T20:51:52.511Z,48
2019-04-04T20:57:04.139Z,48.1
2019-04-04T21:01:59.249Z,48.1
2019-04-04T21:07:04.244Z,47.9
2019-04-04T21:12:12.176Z,48.6
2019-04-04T21:17:17.826Z,48.2
2019-04-04T21:22:30.442Z,48.3
2019-04-04T21:27:25.717Z,48.3
2019-04-04T21:32:30.521Z,48.4
2019-04-04T21:37:35.555Z,48
2019-04-04T21:42:40.826Z,47.9
2019-04-04T21:47:46.006Z,47.5
2019-04-04T21:52:50.925Z,47.5
2019-04-04T21:57:56.266Z,47.5
2019-04-04T22:03:01.283Z,47.5
2019-04-04T22:08:07.017Z,47.8
2019-04-04T22:13:12.190Z,47.8
2019-04-04T22:18:17.562Z,47.8
2019-04-04T22:23:23.324Z,47.9
2019-04-04T22:28:28.595Z,47.8
2019-04-04T22:33:34.143Z,47.6
2019-04-04T22:38:39.631Z,47.6
2019-04-04T22:43:44.731Z,47.6
2019-04-04T22:48:50.200Z,47.7
2019-04-04T22:53:55.085Z,47.8
2019-04-04T22:59:00.376Z,48
2019-04-04T23:04:04.123Z,48.2
2019-04-04T23:09:09.494Z,49
2019-04-04T23:14:14.681Z,48.6
2019-04-04T23:19:18.526Z,48.8
2019-04-04T23:24:23.481Z,48.9
2019-04-04T23:29:28.636Z,49.1
2019-04-04T23:34:34.175Z,49.6
2019-04-04T23:39:39.346Z,49.5
2019-04-04T23:44:44.256Z,49.9
2019-04-04T23:49:49.466Z,50.1
2019-04-04T23:54:54.538Z,50.4
2019-04-04T23:59:59.748Z,50.6
